createdAt,value
2023-05-21T00:00:38.354Z,17.4
2023-05-21T00:20:37.173Z,17.4
2023-05-21T00:40:37.648Z,17.3
2023-05-21T01:00:37.336Z,17.3
2023-05-21T01:20:40.836Z,17.2
2023-05-21T01:40:38.831Z,17.2
2023-05-21T02:00:38.850Z,17.2
2023-05-21T02:20:37.429Z,17.2
2023-05-21T02:40:36.929Z,17.2
2023-05-21T03:00:36.718Z,17.1
2023-05-21T03:20:37.159Z,17.1
2023-05-21T03:40:39.832Z,17
2023-05-21T04:00:55.110Z,17
2023-05-21T04:20:43.112Z,16.9
2023-05-21T04:40:54.518Z,17
2023-05-21T05:00:55.584Z,17
2023-05-21T05:20:54.101Z,17
2023-05-21T05:40:54.882Z,17.1
2023-05-21T06:00:54.947Z,17.2
2023-05-21T06:20:54.327Z,17.2
2023-05-21T06:40:53.902Z,17.3
2023-05-21T07:00:52.627Z,17.3
2023-05-21T07:20:54.822Z,17.4
2023-05-21T07:40:54.920Z,17.5
2023-05-21T08:00:55.054Z,17.5
2023-05-21T08:20:54.953Z,17.6
2023-05-21T08:40:54.043Z,17.6
2023-05-21T09:00:55.268Z,17.7
2023-05-21T09:20:53.470Z,17.7
2023-05-21T09:40:54.069Z,17.8
2023-05-21T10:00:59.339Z,17.9
2023-05-21T10:20:53.831Z,17.9
2023-05-21T10:40:54.953Z,18
2023-05-21T11:00:53.445Z,18
2023-05-21T11:20:54.817Z,18.1
2023-05-21T11:40:54.859Z,18.1
2023-05-21T12:00:57.044Z,18.3
2023-05-21T12:20:55.098Z,18.3
2023-05-21T12:40:55.035Z,18.4
2023-05-21T13:00:54.824Z,18.5
2023-05-21T13:21:00.634Z,18.7
2023-05-21T13:40:54.157Z,18.6
2023-05-21T14:00:51.725Z,18.7
2023-05-21T14:20:54.624Z,18.8
2023-05-21T14:40:54.680Z,18.9
2023-05-21T15:00:51.298Z,19.1
2023-05-21T15:21:00.782Z,19.3
2023-05-21T15:40:54.666Z,19.3
2023-05-21T16:00:54.705Z,19.5
2023-05-21T16:20:51.682Z,19.7
2023-05-21T16:40:58.765Z,21
2023-05-21T17:00:50.900Z,21
2023-05-21T17:20:52.268Z,20.9
2023-05-21T17:40:51.642Z,20.6
2023-05-21T18:00:55.298Z,20.5
2023-05-21T18:20:59.160Z,20.5
2023-05-21T18:40:51.716Z,20.4
2023-05-21T19:00:35.624Z,20.4
2023-05-21T19:20:35.289Z,20.5
2023-05-21T19:40:35.877Z,20.4
2023-05-21T20:00:34.619Z,20.3
2023-05-21T20:20:35.290Z,20.2
2023-05-21T20:40:35.516Z,20.2
2023-05-21T21:00:34.920Z,20.2
2023-05-21T21:20:36.205Z,20.2
2023-05-21T21:40:39.193Z,20.2
2023-05-21T22:00:42.132Z,20.1
2023-05-21T22:20:42.845Z,20
2023-05-21T22:40:36.547Z,20
2023-05-21T23:00:35.977Z,20
2023-05-21T23:20:35.568Z,19.9
2023-05-21T23:40:35.447Z,19.9
